Terminal Aerodrome Forecast
Issued by NWS

Home | Current Version | Previous Version | Text Only | Print | Product List | Glossary On
Versions: 1 2 3 4 5 6 7 8 9 10 11 12 13 14 15
000
FTUS43 KEAX 161700
TAFSTJ
TAF
KSTJ 161724Z 1618/1718 19022G37KT P6SM SCT150
     FM162300 20017G25KT P6SM SCT070
     FM170300 24012KT P6SM BKN060
     FM170600 32012KT P6SM SCT060=

USA.gov is the U.S. government's official web portal to all federal, state and local government web resources and services.